Aarle-Rixtel, Netherlands
Current Conditions -  °F | °C
As of 5:25 PM on Thursday 27 Nov 2014 (Local Time) from EHVK Reporting Station
Light Rain Light Rain  
Wind Chill: 39°   Ceiling: 900
Heat Index: 45°   Visibility: 3mi
Dew Point: 43°   Wind: 10mph
Humidity: 93%   Direction: 110°ESE
Pressure: 29.71"   Gusts: NA
Location:  51.51°N, 5.64°E
Report Text: EHVK 271625Z AUTO 11009KT 5000 -RA FEW007 BKN009 BKN026 07/06 Q1006 RERA REDZ GRN 11010KT 8000 SCT030 BKN060 TEMPO 4000 -DZRA SCT010 BKN020
Loading
Personal Weather Stations






























Interactive Weather Map New forecast layout! Learn more

10-Day Weather Forecast

Advertisements
Track Severe Weather on mobile